LKTB/BRQ METAR and TAF weather

Enter ICAO airport designator
Station Type Date Time Source
LKTB METAR 2020/07/04 02:30 UTC NOAA

LKTB 040230Z VRB01KT CAVOK 13/11 Q1019 NOSIG


Station Type Date Time Source
LKTB Decoded METAR 2020/07/04 02:30 UTC NOAA

Brno / Turany, Czech Republic (LKTB) 49-09N 016-42E 246M
Jul 03, 2020 - 10:30 PM EDT / 2020.07.04 0230 UTC
Wind: Variable at 1 MPH (1 KT):0
Visibility: greater than 7 mile(s):0
Temperature: 55 F (13 C)
Dew Point: 51 F (11 C)
Relative Humidity: 87%
Pressure (altimeter): 30.09 in. Hg (1019 hPa)
ob: LKTB 040230Z VRB01KT CAVOK 13/11 Q1019 NOSIG
cycle: 2

Station Type Date Time Source
LKTB TAF 2020/07/03 18:06 UTC NOAA

TAF LKTB 031700Z 0318/0500 30006KT CAVOK
BECMG 0409/0411 22004KT
BECMG 0415/0417 30004KT

Example: see airport list